Hinckley, Utah
Current Conditions -  °F | °C
As of 3:55 PM on Saturday 20 Dec 2014 (Local Time) from KDTA Reporting Station
Overcast Overcast  
Wind Chill: 36°   Ceiling: 5000
Heat Index: 40°   Visibility: 10mi
Dew Point: 33°   Wind: 6mph
Humidity: 75%   Direction: 110°ESE
Pressure: 30.08"   Gusts: NA
Location:  39.32°N, 112.67°W
Report Text: KDTA 202255Z AUTO 11005KT 10SM SCT043 BKN050 OVC080 05/01 A3008 RMK AO1 T00470007
Loading
Personal Weather Stations






























Interactive Weather Map New forecast layout! Learn more

10-Day Weather Forecast

Advertisements
Track Severe Weather on mobile